Time;durP1;ratioP1;P1;durP2;ratioP2;P2;SDS_P1;SDS_P2;PMS_P1;PMS_P2;Temp;Humidity;BMP_temperature;BMP_pressure;BME280_temperature;BME280_humidity;BME280_pressure;Samples;Min_cycle;Max_cycle;Signal;HPM_P1;HPM_P2
2023/06/06 00:02:04;;;;;;;17.75;7.68;;;11.60;99.90;;;;;;5038120;28;20040;-72
2023/06/06 00:04:29;;;;;;;19.02;8.43;;;11.60;99.90;;;;;;5034997;28;20029;-74
2023/06/06 00:06:56;;;;;;;16.40;8.38;;;11.50;99.90;;;;;;5043047;28;20025;-73
2023/06/06 00:09:22;;;;;;;20.35;8.70;;;11.50;99.90;;;;;;5037700;28;20117;-75
2023/06/06 00:11:48;;;;;;;19.70;8.15;;;11.50;99.90;;;;;;5045604;28;20438;-74
2023/06/06 00:14:18;;;;;;;15.32;7.63;;;11.50;99.90;;;;;;5051138;28;20021;-77
2023/06/06 00:16:48;;;;;;;16.20;7.85;;;11.50;99.90;;;;;;5036648;28;20431;-73
2023/06/06 00:19:15;;;;;;;20.02;8.18;;;11.40;99.90;;;;;;5044307;28;20036;-75
2023/06/06 00:21:41;;;;;;;17.90;8.07;;;11.50;99.90;;;;;;5031203;28;20036;-77
2023/06/06 00:24:07;;;;;;;22.23;8.73;;;11.40;99.90;;;;;;5039678;28;20401;-71
2023/06/06 00:26:33;;;;;;;18.50;8.52;;;11.40;99.90;;;;;;5048302;28;20148;-74
2023/06/06 00:28:59;;;;;;;17.25;8.60;;;11.40;99.90;;;;;;5042777;28;20458;-73
2023/06/06 00:31:24;;;;;;;18.73;8.90;;;11.40;99.90;;;;;;5045395;28;20064;-76
2023/06/06 00:33:50;;;;;;;17.13;7.97;;;11.40;99.90;;;;;;5050211;28;20372;-72
2023/06/06 00:36:15;;;;;;;17.83;8.10;;;11.40;99.90;;;;;;5039393;28;20353;-72
2023/06/06 00:38:41;;;;;;;18.65;8.60;;;11.40;99.90;;;;;;5051271;28;20350;-73
2023/06/06 00:41:07;;;;;;;17.80;8.75;;;11.30;99.90;;;;;;5043433;28;20029;-72
2023/06/06 00:43:32;;;;;;;18.08;8.52;;;11.40;99.90;;;;;;5052999;28;20045;-73
2023/06/06 00:45:58;;;;;;;17.48;8.32;;;11.30;99.90;;;;;;5023157;28;20126;-73
2023/06/06 00:48:24;;;;;;;19.50;8.93;;;11.30;99.90;;;;;;5042954;28;20032;-72
2023/06/06 00:50:51;;;;;;;18.55;8.63;;;11.30;99.90;;;;;;5035496;28;20473;-75
2023/06/06 00:53:17;;;;;;;20.98;8.57;;;11.30;99.90;;;;;;5044507;28;20377;-72
2023/06/06 00:55:43;;;;;;;17.45;8.13;;;11.30;99.90;;;;;;5042449;28;20033;-73
2023/06/06 00:58:11;;;;;;;18.60;8.30;;;11.30;99.90;;;;;;5050797;28;20037;-74
2023/06/06 01:00:39;;;;;;;19.98;8.75;;;11.30;99.90;;;;;;5047621;28;20024;-75
2023/06/06 01:03:09;;;;;;;20.05;9.43;;;11.30;99.90;;;;;;5035457;28;20037;-73
2023/06/06 01:05:36;;;;;;;19.77;8.90;;;11.30;99.90;;;;;;5050616;28;20025;-73
2023/06/06 01:08:02;;;;;;;19.42;8.15;;;11.30;99.90;;;;;;5039415;28;20381;-73
2023/06/06 01:10:28;;;;;;;17.58;8.38;;;11.30;99.90;;;;;;5052765;28;20025;-72
2023/06/06 01:13:11;;;;;;;18.92;8.98;;;11.20;99.90;;;;;;5054493;28;20024;-72
2023/06/06 01:16:07;;;;;;;19.48;7.97;;;11.20;99.90;;;;;;5043057;28;20018;-77
2023/06/06 01:18:33;;;;;;;20.15;7.82;;;11.20;99.90;;;;;;5049608;28;20034;-75
2023/06/06 01:21:00;;;;;;;17.48;8.68;;;11.20;99.90;;;;;;5035297;28;20080;-73
2023/06/06 01:23:27;;;;;;;19.73;8.73;;;11.10;99.90;;;;;;5045889;28;20048;-74
2023/06/06 01:25:54;;;;;;;18.83;8.05;;;11.10;99.90;;;;;;5040637;28;20093;-73
2023/06/06 01:28:20;;;;;;;17.13;9.02;;;11.20;99.90;;;;;;5051517;28;20104;-75
2023/06/06 01:30:46;;;;;;;17.83;8.43;;;11.10;99.90;;;;;;5047583;28;20124;-72
2023/06/06 01:33:27;;;;;;;24.08;8.70;;;11.10;99.90;;;;;;5039596;28;20040;-73
2023/06/06 01:36:16;;;;;;;20.42;8.23;;;11.10;99.90;;;;;;5054728;28;20109;-72
2023/06/06 01:38:57;;;;;;;19.63;8.20;;;11.10;99.90;;;;;;5034919;28;20030;-74
2023/06/06 01:41:25;;;;;;;19.35;8.70;;;11.00;99.90;;;;;;5027221;28;20390;-72
2023/06/06 01:43:54;;;;;;;18.35;8.45;;;11.00;99.90;;;;;;5040733;28;20047;-73
2023/06/06 01:46:21;;;;;;;18.42;7.95;;;11.00;99.90;;;;;;5033952;28;20061;-74
2023/06/06 01:48:47;;;;;;;18.88;7.75;;;11.00;99.90;;;;;;5039961;28;20036;-72
2023/06/06 01:51:14;;;;;;;16.15;8.40;;;11.00;99.90;;;;;;5045447;28;20030;-75
2023/06/06 01:53:39;;;;;;;21.88;9.02;;;11.00;99.90;;;;;;5047611;28;20051;-75
2023/06/06 01:56:12;;;;;;;17.52;8.45;;;11.00;99.90;;;;;;5058369;28;20033;-72
2023/06/06 01:58:38;;;;;;;18.42;8.32;;;11.00;99.90;;;;;;5034367;28;20021;-73
2023/06/06 02:01:06;;;;;;;18.75;9.15;;;11.00;99.90;;;;;;5042261;28;20017;-72
2023/06/06 02:03:32;;;;;;;22.02;9.45;;;11.00;99.90;;;;;;5042766;28;20044;-76
2023/06/06 02:05:57;;;;;;;18.85;9.20;;;11.00;99.90;;;;;;5049738;28;20033;-71
2023/06/06 02:08:23;;;;;;;21.40;8.95;;;10.90;99.90;;;;;;5038147;28;20030;-74
2023/06/06 02:10:49;;;;;;;20.52;9.45;;;10.90;99.90;;;;;;5034785;28;20066;-71
2023/06/06 02:13:15;;;;;;;20.50;9.90;;;10.90;99.90;;;;;;5053894;28;20029;-71
2023/06/06 02:15:41;;;;;;;18.80;8.85;;;10.90;99.90;;;;;;5054369;28;20457;-75
2023/06/06 02:18:07;;;;;;;18.80;9.05;;;11.00;99.90;;;;;;5050666;28;20070;-71
2023/06/06 02:20:32;;;;;;;21.67;9.10;;;10.90;99.90;;;;;;5051241;28;20454;-73
2023/06/06 02:22:58;;;;;;;16.45;8.00;;;10.90;99.90;;;;;;5041770;28;20469;-74
2023/06/06 02:25:24;;;;;;;19.80;9.45;;;10.90;99.90;;;;;;5044662;28;20115;-71
2023/06/06 02:27:50;;;;;;;18.17;8.77;;;10.90;99.90;;;;;;5048974;28;20024;-72
2023/06/06 02:30:15;;;;;;;18.13;8.38;;;10.90;99.90;;;;;;5048527;28;20028;-72
2023/06/06 02:32:41;;;;;;;20.83;9.32;;;10.90;99.90;;;;;;5049598;28;20424;-72
2023/06/06 02:35:08;;;;;;;21.23;9.57;;;10.90;99.90;;;;;;5042128;28;20056;-72
2023/06/06 02:37:33;;;;;;;21.45;9.23;;;10.80;99.90;;;;;;5042171;28;20053;-73
2023/06/06 02:40:08;;;;;;;18.48;8.32;;;10.80;99.90;;;;;;5048914;28;20075;-71
2023/06/06 02:42:34;;;;;;;21.08;9.43;;;10.80;99.90;;;;;;5037163;28;20131;-75
2023/06/06 02:45:01;;;;;;;19.33;8.95;;;10.80;99.90;;;;;;5045491;28;20359;-72
2023/06/06 02:47:26;;;;;;;18.65;8.77;;;10.80;99.90;;;;;;5042961;28;20080;-73
2023/06/06 02:49:52;;;;;;;22.25;9.20;;;10.80;99.90;;;;;;5048141;28;20346;-74
2023/06/06 02:52:17;;;;;;;20.27;9.18;;;10.80;99.90;;;;;;5036979;28;20349;-72
2023/06/06 02:54:43;;;;;;;19.10;8.80;;;10.80;99.90;;;;;;5048540;28;20087;-70
2023/06/06 02:57:09;;;;;;;20.52;9.50;;;10.80;99.90;;;;;;5041507;28;20029;-72
2023/06/06 02:59:35;;;;;;;18.17;8.55;;;10.80;99.90;;;;;;5039067;28;20051;-72
2023/06/06 03:02:03;;;;;;;20.63;8.93;;;10.70;99.90;;;;;;5057525;28;20029;-73
2023/06/06 03:04:29;;;;;;;22.25;8.18;;;10.80;99.90;;;;;;5050316;28;20067;-72
2023/06/06 03:06:55;;;;;;;22.88;8.88;;;10.80;99.90;;;;;;5022017;28;20020;-72
2023/06/06 03:09:21;;;;;;;17.42;8.18;;;10.70;99.90;;;;;;5043161;28;20091;-72
2023/06/06 03:11:46;;;;;;;19.92;8.73;;;10.80;99.90;;;;;;5046587;28;20025;-73
2023/06/06 03:14:12;;;;;;;24.58;9.00;;;10.80;99.90;;;;;;5036249;28;20048;-73
2023/06/06 03:16:39;;;;;;;19.35;8.60;;;10.80;99.90;;;;;;5048494;28;20018;-73
2023/06/06 03:19:06;;;;;;;20.98;8.27;;;10.80;99.90;;;;;;5040617;28;20084;-71
2023/06/06 03:21:33;;;;;;;20.63;9.30;;;10.80;99.90;;;;;;5041320;28;20025;-72
2023/06/06 03:24:00;;;;;;;17.25;8.40;;;10.80;99.90;;;;;;5047563;28;20387;-72
2023/06/06 03:26:26;;;;;;;18.83;8.82;;;10.80;99.90;;;;;;5036175;28;20022;-72
2023/06/06 03:28:52;;;;;;;19.50;8.27;;;10.80;99.90;;;;;;5046436;28;20018;-74
2023/06/06 03:31:23;;;;;;;19.85;8.18;;;10.80;99.90;;;;;;5041956;28;20098;-73
2023/06/06 03:33:49;;;;;;;21.25;8.23;;;10.80;99.90;;;;;;5038601;28;20026;-73
2023/06/06 03:36:16;;;;;;;22.77;8.63;;;10.80;99.90;;;;;;5049287;28;20032;-75
2023/06/06 03:38:42;;;;;;;16.88;7.97;;;10.80;99.90;;;;;;5032813;28;20378;-73
2023/06/06 03:41:08;;;;;;;20.63;8.35;;;10.90;99.90;;;;;;5032547;28;20499;-71
2023/06/06 03:43:34;;;;;;;15.90;7.57;;;10.90;99.90;;;;;;5044260;28;20060;-71
2023/06/06 03:46:00;;;;;;;21.55;9.15;;;10.90;99.90;;;;;;5037036;28;20049;-71
2023/06/06 03:48:26;;;;;;;21.52;8.10;;;10.90;99.90;;;;;;5049169;28;20032;-74
2023/06/06 03:50:52;;;;;;;18.60;8.48;;;10.90;99.90;;;;;;5041781;28;20037;-72
2023/06/06 03:53:17;;;;;;;22.38;8.45;;;10.90;99.90;;;;;;5031955;28;20033;-72
2023/06/06 03:55:44;;;;;;;20.45;8.18;;;11.00;99.90;;;;;;5045046;28;20044;-71
2023/06/06 03:58:10;;;;;;;20.85;8.18;;;11.00;99.90;;;;;;5035616;28;20025;-75
2023/06/06 04:00:39;;;;;;;22.55;8.93;;;11.00;99.90;;;;;;5048247;28;20017;-73
2023/06/06 04:03:05;;;;;;;21.63;8.40;;;11.10;99.90;;;;;;5022386;28;20390;-73
2023/06/06 04:05:32;;;;;;;24.05;8.60;;;11.10;99.90;;;;;;5041036;28;20539;-72
2023/06/06 04:07:59;;;;;;;18.25;6.82;;;11.10;99.90;;;;;;5047330;28;20117;-76
2023/06/06 04:10:25;;;;;;;18.52;7.45;;;11.20;99.90;;;;;;5036006;28;20022;-77
2023/06/06 04:12:51;;;;;;;17.23;7.55;;;11.20;99.90;;;;;;5046390;28;20032;-72
2023/06/06 04:15:17;;;;;;;17.58;7.22;;;11.30;99.90;;;;;;5042124;28;20054;-73
2023/06/06 04:17:42;;;;;;;20.65;7.88;;;11.30;99.90;;;;;;5039396;28;20077;-73
2023/06/06 04:20:08;;;;;;;15.77;6.55;;;11.30;99.90;;;;;;5030501;28;20032;-74
2023/06/06 04:22:38;;;;;;;19.70;7.68;;;11.40;99.90;;;;;;5035163;28;20029;-71
2023/06/06 04:25:05;;;;;;;21.73;7.32;;;11.50;99.90;;;;;;5044567;28;20029;-77
2023/06/06 04:27:31;;;;;;;16.27;6.90;;;11.50;99.90;;;;;;5042456;28;20094;-73
2023/06/06 04:29:57;;;;;;;15.18;6.38;;;11.60;99.90;;;;;;5037162;28;20385;-73
2023/06/06 04:32:23;;;;;;;20.67;7.13;;;11.70;99.90;;;;;;5048882;28;20094;-75
2023/06/06 04:34:57;;;;;;;17.08;6.25;;;11.70;99.90;;;;;;5052416;28;20102;-73
2023/06/06 04:37:23;;;;;;;19.05;6.88;;;11.80;99.90;;;;;;5052447;28;20029;-71
2023/06/06 04:39:52;;;;;;;15.35;6.40;;;11.80;99.90;;;;;;5051665;28;20021;-74
2023/06/06 04:42:19;;;;;;;17.10;6.13;;;11.90;99.90;;;;;;5052289;28;20092;-73
2023/06/06 04:44:46;;;;;;;17.08;6.60;;;12.00;99.90;;;;;;5052674;28;20037;-76
2023/06/06 04:47:12;;;;;;;18.75;7.05;;;12.10;99.90;;;;;;5052348;28;20082;-72
2023/06/06 04:49:39;;;;;;;15.05;6.28;;;12.10;99.90;;;;;;5052024;28;20071;-72
2023/06/06 04:52:10;;;;;;;18.98;6.15;;;12.20;99.90;;;;;;5052454;28;20032;-73
2023/06/06 04:54:37;;;;;;;18.45;7.13;;;12.20;99.90;;;;;;5052353;28;20021;-75
2023/06/06 04:57:07;;;;;;;16.00;6.30;;;12.30;99.90;;;;;;5051206;28;20036;-71
2023/06/06 04:59:33;;;;;;;15.60;6.57;;;12.30;99.90;;;;;;5050672;28;20032;-72
2023/06/06 05:02:01;;;;;;;18.73;6.20;;;12.40;99.90;;;;;;5051587;28;20457;-71
2023/06/06 05:04:29;;;;;;;15.63;6.00;;;12.50;99.90;;;;;;5051885;28;20037;-73
2023/06/06 05:06:58;;;;;;;16.98;6.53;;;12.60;99.90;;;;;;5055349;28;20032;-72
2023/06/06 05:09:24;;;;;;;14.15;5.25;;;12.70;99.90;;;;;;5055713;28;20039;-72
2023/06/06 05:11:52;;;;;;;11.85;4.82;;;12.80;99.90;;;;;;5056069;28;20029;-72
2023/06/06 05:14:23;;;;;;;14.98;5.22;;;12.90;99.90;;;;;;5044031;28;20029;-72
2023/06/06 05:16:57;;;;;;;13.38;5.10;;;12.90;99.90;;;;;;5045284;28;20119;-74
2023/06/06 05:19:22;;;;;;;15.45;5.03;;;13.00;99.90;;;;;;5055946;28;20075;-72
2023/06/06 05:21:48;;;;;;;16.40;5.25;;;13.10;99.90;;;;;;5055853;28;20028;-76
2023/06/06 05:24:20;;;;;;;12.88;5.10;;;13.30;99.90;;;;;;5055315;28;20481;-75
2023/06/06 05:26:46;;;;;;;14.05;4.85;;;13.40;99.90;;;;;;5055511;28;20531;-75
2023/06/06 05:29:11;;;;;;;14.25;4.90;;;13.70;99.90;;;;;;5054888;28;20111;-72
2023/06/06 05:31:37;;;;;;;11.63;4.35;;;14.00;99.90;;;;;;5055420;28;20128;-73
2023/06/06 05:34:03;;;;;;;9.38;4.78;;;14.30;99.90;;;;;;5055470;28;20025;-72
2023/06/06 05:36:29;;;;;;;12.63;4.78;;;14.70;99.90;;;;;;5055504;28;20032;-78
2023/06/06 05:38:55;;;;;;;11.05;4.05;;;14.90;99.90;;;;;;5054756;28;20021;-73
2023/06/06 05:41:23;;;;;;;11.77;4.43;;;15.40;99.90;;;;;;5037216;28;20021;-74
2023/06/06 05:43:56;;;;;;;10.57;4.30;;;15.80;99.90;;;;;;5050848;28;20049;-71
2023/06/06 05:46:21;;;;;;;13.02;4.53;;;16.20;99.90;;;;;;5051218;28;20182;-72
2023/06/06 05:48:47;;;;;;;10.88;4.20;;;16.50;99.90;;;;;;5051248;28;20477;-71
2023/06/06 05:51:12;;;;;;;12.00;4.22;;;16.70;99.90;;;;;;5041983;28;20503;-73
2023/06/06 05:53:44;;;;;;;11.65;4.50;;;17.00;99.90;;;;;;5044304;28;20018;-73
2023/06/06 05:56:11;;;;;;;;;;;17.40;99.90;;;;;;5049680;28;20025;-73
2023/06/06 05:58:37;;;;;;;13.52;4.63;;;17.60;99.90;;;;;;5038053;28;19909;-73
2023/06/06 06:01:05;;;;;;;11.45;4.45;;;17.70;99.90;;;;;;5048766;28;20032;-72
2023/06/06 06:03:32;;;;;;;12.23;4.70;;;18.10;99.90;;;;;;5041401;28;20120;-73
2023/06/06 06:06:02;;;;;;;10.70;4.75;;;18.40;99.90;;;;;;5034478;28;20470;-74
2023/06/06 06:08:29;;;;;;;9.45;4.63;;;18.70;99.90;;;;;;5050961;28;20492;-76
2023/06/06 06:10:55;;;;;;;10.60;4.82;;;19.00;99.90;;;;;;5038793;28;20100;-73
2023/06/06 06:13:21;;;;;;;10.95;4.15;;;19.00;99.90;;;;;;5036563;28;20029;-73
2023/06/06 06:15:47;;;;;;;11.75;4.95;;;18.70;99.90;;;;;;5054668;28;20024;-75
2023/06/06 06:18:13;;;;;;;12.52;4.22;;;18.60;99.90;;;;;;5038692;28;20105;-72
2023/06/06 06:20:38;;;;;;;13.90;4.63;;;18.50;99.90;;;;;;5050957;28;20385;-74
2023/06/06 06:23:04;;;;;;;11.75;4.57;;;18.20;99.90;;;;;;5039346;28;20052;-73
2023/06/06 06:25:30;;;;;;;12.18;5.00;;;18.30;99.90;;;;;;5044484;28;20029;-73
2023/06/06 06:27:56;;;;;;;13.38;4.55;;;18.40;99.90;;;;;;5047032;28;20028;-71
2023/06/06 06:30:22;;;;;;;11.05;4.78;;;18.50;99.90;;;;;;5035216;28;20053;-74
2023/06/06 06:32:48;;;;;;;13.23;4.85;;;18.90;99.90;;;;;;5033565;28;20515;-70
2023/06/06 06:35:13;;;;;;;11.95;4.97;;;19.20;99.90;;;;;;5040515;28;20025;-76
2023/06/06 06:37:40;;;;;;;14.27;4.72;;;19.00;99.90;;;;;;5042956;28;20026;-72
2023/06/06 06:40:09;;;;;;;12.82;5.53;;;19.00;99.90;;;;;;5047852;28;20032;-72
2023/06/06 06:42:39;;;;;;;15.30;5.45;;;18.80;99.90;;;;;;5037472;28;20481;-76
2023/06/06 06:45:06;;;;;;;13.38;4.97;;;18.80;99.90;;;;;;5048279;28;20095;-74
2023/06/06 06:47:32;;;;;;;12.65;5.53;;;18.80;99.90;;;;;;5043438;28;20028;-75
2023/06/06 06:49:57;;;;;;;13.15;5.32;;;18.80;99.90;;;;;;5040966;28;20021;-76
2023/06/06 06:52:23;;;;;;;13.25;4.93;;;19.20;99.90;;;;;;5049770;28;20025;-72
2023/06/06 06:54:59;;;;;;;13.18;4.60;;;19.80;99.90;;;;;;5033735;28;20096;-73
2023/06/06 06:57:26;;;;;;;11.55;5.00;;;20.60;99.50;;;;;;5041539;28;20461;-75
2023/06/06 06:59:53;;;;;;;14.52;4.68;;;21.20;98.20;;;;;;5041831;28;20052;-72
2023/06/06 07:02:19;;;;;;;12.85;4.82;;;21.70;97.70;;;;;;5052373;28;20349;-72
2023/06/06 07:04:47;;;;;;;9.55;4.45;;;22.40;96.40;;;;;;5049895;28;20037;-71
2023/06/06 07:07:16;;;;;;;12.27;4.80;;;22.60;95.50;;;;;;5045172;28;20113;-71
2023/06/06 07:09:43;;;;;;;13.27;4.28;;;22.60;95.50;;;;;;5034918;28;20469;-76
2023/06/06 07:12:13;;;;;;;15.27;5.10;;;22.60;95.30;;;;;;5052566;28;20497;-74
2023/06/06 07:14:39;;;;;;;13.57;4.25;;;22.80;95.20;;;;;;5050177;28;20541;-73
2023/06/06 07:17:07;;;;;;;13.23;4.63;;;22.60;95.20;;;;;;5014343;28;20435;-71
2023/06/06 07:19:33;;;;;;;12.73;4.65;;;22.10;95.80;;;;;;5042818;28;20079;-73
2023/06/06 07:21:59;;;;;;;13.13;4.63;;;21.90;96.30;;;;;;5041388;28;20038;-75
2023/06/06 07:24:24;;;;;;;10.43;3.80;;;21.70;96.30;;;;;;5052387;28;20051;-71
2023/06/06 07:26:53;;;;;;;14.88;5.18;;;21.40;96.70;;;;;;5036912;28;20088;-71
2023/06/06 07:29:19;;;;;;;10.48;4.82;;;21.10;97.40;;;;;;5044580;28;20025;-76
2023/06/06 07:31:44;;;;;;;11.70;4.75;;;21.30;97.10;;;;;;5044452;28;20440;-71
2023/06/06 07:34:10;;;;;;;11.93;4.38;;;21.60;96.80;;;;;;5037899;28;20017;-72
2023/06/06 07:36:36;;;;;;;13.48;3.97;;;21.60;96.50;;;;;;5031350;28;20032;-72
2023/06/06 07:39:02;;;;;;;12.70;4.60;;;21.70;96.50;;;;;;5032990;28;20064;-74
2023/06/06 07:41:31;;;;;;;11.95;4.70;;;21.80;96.30;;;;;;5017754;28;20056;-75
2023/06/06 07:43:58;;;;;;;15.60;5.00;;;22.00;96.10;;;;;;5039740;28;20033;-72
2023/06/06 07:46:24;;;;;;;13.30;5.03;;;22.30;95.90;;;;;;5032579;28;20070;-72
2023/06/06 07:48:50;;;;;;;11.43;4.00;;;22.40;95.70;;;;;;5038003;28;20017;-71
2023/06/06 07:51:16;;;;;;;13.13;4.55;;;22.80;95.30;;;;;;5045338;28;20327;-74
2023/06/06 07:53:43;;;;;;;7.55;4.22;;;22.80;95.20;;;;;;5044521;28;20118;-71
2023/06/06 07:56:09;;;;;;;11.93;4.38;;;22.70;95.20;;;;;;5038377;28;20524;-71
2023/06/06 07:58:40;;;;;;;10.13;4.03;;;22.50;95.40;;;;;;5050101;28;20068;-77
2023/06/06 08:01:07;;;;;;;13.38;4.18;;;22.30;95.30;;;;;;5034663;28;20174;-71
2023/06/06 08:03:32;;;;;;;13.48;4.70;;;22.00;95.80;;;;;;5052225;28;20033;-72
2023/06/06 08:05:58;;;;;;;12.75;4.75;;;21.80;95.90;;;;;;5039235;28;20022;-73
2023/06/06 08:08:26;;;;;;;11.95;3.90;;;21.70;96.30;;;;;;5032962;28;20109;-74
2023/06/06 08:10:52;;;;;;;11.82;4.18;;;21.80;96.20;;;;;;5036985;28;20017;-72
2023/06/06 08:13:19;;;;;;;10.60;4.30;;;22.10;96.20;;;;;;5045542;28;20040;-72
2023/06/06 08:15:44;;;;;;;14.77;4.53;;;22.50;95.80;;;;;;5039134;28;20033;-72
2023/06/06 08:18:10;;;;;;;10.10;4.47;;;22.90;95.20;;;;;;5050413;28;20385;-74
2023/06/06 08:20:35;;;;;;;10.57;3.97;;;23.20;94.80;;;;;;5036040;28;20389;-73
2023/06/06 08:23:01;;;;;;;10.93;4.30;;;23.50;94.50;;;;;;5038733;28;20407;-73
2023/06/06 08:25:26;;;;;;;8.90;3.80;;;23.90;93.70;;;;;;5042643;28;20032;-72
2023/06/06 08:27:52;;;;;;;10.10;4.25;;;24.40;93.40;;;;;;5033468;28;20021;-71
2023/06/06 08:30:17;;;;;;;11.80;4.90;;;24.90;92.60;;;;;;5034191;28;20026;-72
2023/06/06 08:32:43;;;;;;;7.95;3.88;;;25.50;91.80;;;;;;5069066;28;20326;-72
2023/06/06 08:35:10;;;;;;;9.30;3.80;;;26.20;91.00;;;;;;5058875;28;20124;-74
2023/06/06 08:37:35;;;;;;;8.02;3.80;;;26.70;90.30;;;;;;5064156;28;20124;-74
2023/06/06 08:40:01;;;;;;;8.57;3.97;;;27.40;89.30;;;;;;5059224;28;20032;-73
2023/06/06 08:42:29;;;;;;;9.25;3.70;;;28.00;87.80;;;;;;5072693;28;20033;-75
2023/06/06 08:44:56;;;;;;;9.75;4.13;;;28.40;86.60;;;;;;5060377;28;20488;-72
2023/06/06 08:47:25;;;;;;;9.73;3.63;;;28.80;85.60;;;;;;5067486;28;20045;-72
2023/06/06 08:49:52;;;;;;;9.60;4.20;;;29.20;84.10;;;;;;5068392;28;20070;-72
2023/06/06 08:52:20;;;;;;;10.77;4.00;;;29.40;83.30;;;;;;5074421;28;20029;-73
2023/06/06 08:54:48;;;;;;;8.60;3.80;;;29.60;82.40;;;;;;5072685;28;20025;-74
2023/06/06 08:57:14;;;;;;;10.52;4.60;;;29.70;82.10;;;;;;5063235;28;20524;-75
2023/06/06 08:59:41;;;;;;;8.85;3.83;;;29.90;81.60;;;;;;5064985;28;20035;-73
2023/06/06 09:02:07;;;;;;;6.75;3.65;;;29.90;81.60;;;;;;5069981;28;20033;-72
2023/06/06 09:04:34;;;;;;;11.82;4.00;;;29.80;81.30;;;;;;5059046;28;20555;-72
2023/06/06 09:07:11;;;;;;;8.27;3.90;;;29.50;82.00;;;;;;5070693;28;20039;-73
2023/06/06 09:09:38;;;;;;;8.05;3.90;;;29.50;81.50;;;;;;5064282;28;20529;-74
2023/06/06 09:12:06;;;;;;;8.68;3.55;;;29.70;81.70;;;;;;5069362;28;20116;-72
2023/06/06 09:14:32;;;;;;;12.05;4.05;;;29.90;80.60;;;;;;5059143;28;20036;-74
2023/06/06 09:16:59;;;;;;;10.25;4.57;;;30.00;80.40;;;;;;5082292;28;20051;-71
2023/06/06 09:19:25;;;;;;;11.40;3.70;;;29.80;80.20;;;;;;5064249;28;20039;-71
2023/06/06 09:21:52;;;;;;;10.43;4.05;;;29.90;79.80;;;;;;5062951;28;20424;-74
2023/06/06 09:24:18;;;;;;;9.05;3.85;;;29.90;79.90;;;;;;5070861;28;20083;-73
2023/06/06 09:26:44;;;;;;;11.30;3.92;;;29.70;79.60;;;;;;5058818;28;20054;-72
2023/06/06 09:29:11;;;;;;;10.93;3.80;;;29.60;80.00;;;;;;5068592;28;20036;-74
2023/06/06 09:31:38;;;;;;;11.65;3.72;;;29.80;79.90;;;;;;5052144;28;20512;-74
2023/06/06 09:34:04;;;;;;;9.18;3.28;;;30.00;79.50;;;;;;5051638;28;20075;-71
2023/06/06 09:36:31;;;;;;;9.32;3.25;;;30.20;78.90;;;;;;5055329;28;20036;-73
2023/06/06 09:39:07;;;;;;;10.05;4.20;;;30.10;79.10;;;;;;5052927;28;20082;-72
2023/06/06 09:41:48;;;;;;;7.07;3.42;;;30.00;79.40;;;;;;5055316;28;20025;-71
2023/06/06 09:44:24;;;;;;;11.40;4.27;;;30.10;79.00;;;;;;5047631;28;20098;-73
2023/06/06 09:47:12;;;;;;;11.38;3.80;;;29.90;79.30;;;;;;5026749;28;20029;-72
2023/06/06 09:49:38;;;;;;;9.50;3.95;;;29.90;79.10;;;;;;5044127;28;20068;-73
2023/06/06 09:52:05;;;;;;;7.25;3.60;;;30.00;79.50;;;;;;5038267;28;20548;-73
2023/06/06 09:54:32;;;;;;;11.05;3.85;;;30.50;78.30;;;;;;5036744;28;20021;-73
2023/06/06 09:56:58;;;;;;;8.30;3.58;;;30.70;77.80;;;;;;5034632;28;20370;-74
2023/06/06 09:59:25;;;;;;;8.70;3.10;;;31.00;77.30;;;;;;5034374;28;20029;-74
2023/06/06 10:02:02;;;;;;;7.90;3.42;;;31.10;77.00;;;;;;5047136;28;20049;-73
2023/06/06 10:04:28;;;;;;;9.23;3.17;;;31.10;77.10;;;;;;5031259;28;20037;-72
2023/06/06 10:06:58;;;;;;;9.57;3.00;;;31.00;77.00;;;;;;5054743;28;20028;-73
2023/06/06 10:09:26;;;;;;;10.95;3.40;;;31.10;76.90;;;;;;5045967;28;20028;-73
2023/06/06 10:11:52;;;;;;;8.93;3.38;;;31.40;76.00;;;;;;5046821;28;20028;-72
2023/06/06 10:14:20;;;;;;;10.57;3.83;;;31.70;75.50;;;;;;5053225;28;20029;-73
2023/06/06 10:16:45;;;;;;;9.60;3.47;;;31.70;75.20;;;;;;5053275;28;20029;-71
2023/06/06 10:19:13;;;;;;;8.02;3.63;;;31.70;74.80;;;;;;5047455;28;20347;-72
2023/06/06 10:21:40;;;;;;;6.22;3.03;;;31.60;74.90;;;;;;5046681;28;20025;-73
2023/06/06 10:24:06;;;;;;;9.13;4.03;;;31.60;75.00;;;;;;5050580;28;20044;-72
2023/06/06 10:26:55;;;;;;;13.32;3.55;;;31.40;75.50;;;;;;5037503;28;20037;-75
2023/06/06 10:29:49;;;;;;;10.27;3.50;;;31.60;74.90;;;;;;5046275;28;20068;-71
2023/06/06 10:32:19;;;;;;;9.90;3.60;;;31.80;74.50;;;;;;5036318;28;20054;-72
2023/06/06 10:34:48;;;;;;;10.57;3.65;;;31.90;74.40;;;;;;5050562;28;20465;-72
2023/06/06 10:37:18;;;;;;;7.90;3.40;;;32.10;74.00;;;;;;5040842;28;20021;-72
2023/06/06 10:39:47;;;;;;;5.03;3.30;;;32.00;74.10;;;;;;5052348;28;20032;-72
2023/06/06 10:42:14;;;;;;;8.45;3.35;;;32.00;73.60;;;;;;5034887;28;20484;-72
2023/06/06 10:44:45;;;;;;;9.35;3.88;;;31.90;73.60;;;;;;5047936;28;20367;-73
2023/06/06 10:47:20;;;;;;;7.40;3.30;;;32.10;73.50;;;;;;5047399;28;20061;-74
2023/06/06 10:50:08;;;;;;;7.15;3.47;;;31.90;73.60;;;;;;5041223;28;20033;-72
2023/06/06 10:52:51;;;;;;;7.70;3.88;;;31.80;73.40;;;;;;5024856;28;20433;-72
2023/06/06 10:55:22;;;;;;;9.35;3.92;;;31.50;73.90;;;;;;5051151;28;20465;-72
2023/06/06 10:58:14;;;;;;;10.10;3.67;;;31.40;74.10;;;;;;5036738;28;20449;-72
2023/06/06 11:00:47;;;;;;;6.60;3.85;;;31.50;74.30;;;;;;5043985;28;20030;-74
2023/06/06 11:03:31;;;;;;;10.20;3.70;;;31.60;73.80;;;;;;5056635;28;20044;-74
2023/06/06 11:06:00;;;;;;;10.60;4.03;;;31.50;73.90;;;;;;5046640;28;20067;-71
2023/06/06 11:08:58;;;;;;;8.70;4.10;;;31.60;73.70;;;;;;5036927;28;20057;-73
2023/06/06 11:11:29;;;;;;;8.98;4.25;;;31.60;74.00;;;;;;5045726;28;20033;-74
2023/06/06 11:14:02;;;;;;;9.15;3.80;;;31.60;73.50;;;;;;5036871;28;20026;-72
2023/06/06 11:16:29;;;;;;;12.43;4.22;;;31.50;73.80;;;;;;5037223;28;20028;-72
2023/06/06 11:19:19;;;;;;;8.13;3.88;;;31.60;73.90;;;;;;5019886;28;20373;-73
2023/06/06 11:21:46;;;;;;;9.20;4.20;;;31.60;73.60;;;;;;5043529;28;20029;-72
2023/06/06 11:24:12;;;;;;;13.73;4.57;;;31.60;73.60;;;;;;5052276;28;20040;-74
2023/06/06 11:26:40;;;;;;;11.57;4.35;;;31.60;73.90;;;;;;5046538;28;20041;-71
2023/06/06 11:29:07;;;;;;;7.50;3.67;;;31.40;73.80;;;;;;5039221;28;20480;-72
2023/06/06 11:31:35;;;;;;;16.60;4.55;;;31.60;73.50;;;;;;5043032;28;20069;-73
2023/06/06 11:34:14;;;;;;;11.90;4.25;;;31.70;73.80;;;;;;5029223;28;20033;-72
2023/06/06 11:36:42;;;;;;;10.18;4.13;;;32.10;72.90;;;;;;5036712;28;20029;-71
2023/06/06 11:39:11;;;;;;;7.65;4.40;;;32.20;72.50;;;;;;5046898;28;20021;-73
2023/06/06 11:41:44;;;;;;;7.63;3.88;;;31.80;73.10;;;;;;5043301;28;20036;-73
2023/06/06 11:44:10;;;;;;;10.82;3.95;;;31.60;73.00;;;;;;5037932;28;20076;-71
2023/06/06 11:46:44;;;;;;;8.70;4.45;;;31.50;73.10;;;;;;5049272;28;20036;-71
2023/06/06 11:49:10;;;;;;;11.40;5.10;;;31.20;73.80;;;;;;5039286;28;20078;-71
2023/06/06 11:51:36;;;;;;;7.22;3.35;;;31.40;73.50;;;;;;5044620;28;20033;-73
2023/06/06 11:54:12;;;;;;;10.55;4.63;;;31.60;73.10;;;;;;5046559;28;20032;-71
2023/06/06 11:56:38;;;;;;;10.27;4.20;;;31.70;72.90;;;;;;5051048;28;20465;-74
2023/06/06 11:59:04;;;;;;;12.20;4.88;;;31.80;72.90;;;;;;5051279;28;20116;-71
2023/06/06 12:01:30;;;;;;;12.70;4.18;;;31.90;72.70;;;;;;5039404;28;20104;-74
2023/06/06 12:03:55;;;;;;;11.68;4.70;;;32.10;72.50;;;;;;5038610;28;20041;-73
2023/06/06 12:06:22;;;;;;;12.25;4.70;;;32.10;72.60;;;;;;5039033;28;20030;-71
2023/06/06 12:08:48;;;;;;;10.68;4.63;;;32.10;72.40;;;;;;5041890;28;20529;-72
2023/06/06 12:11:24;;;;;;;9.27;4.70;;;32.00;72.80;;;;;;5049235;28;20473;-71
2023/06/06 12:13:50;;;;;;;7.40;3.90;;;32.00;72.70;;;;;;5037828;28;20044;-70
2023/06/06 12:16:27;;;;;;;9.77;4.40;;;31.90;72.90;;;;;;5048728;28;20107;-71
2023/06/06 12:18:54;;;;;;;9.57;4.28;;;31.80;73.10;;;;;;5040748;28;20474;-74
2023/06/06 12:21:20;;;;;;;10.07;4.18;;;31.30;73.50;;;;;;5048974;28;20032;-71
2023/06/06 12:23:47;;;;;;;9.73;4.80;;;31.20;73.50;;;;;;5041054;28;20120;-75
2023/06/06 12:26:13;;;;;;;15.18;5.07;;;31.30;73.50;;;;;;5048207;28;20072;-70
2023/06/06 12:28:56;;;;;;;6.90;3.88;;;31.40;73.40;;;;;;5047745;28;20026;-71
2023/06/06 12:31:23;;;;;;;13.38;4.93;;;31.30;73.40;;;;;;5048928;28;20049;-72
2023/06/06 12:33:49;;;;;;;10.60;4.65;;;31.20;73.40;;;;;;5047194;28;20025;-71
2023/06/06 12:36:19;;;;;;;7.32;4.03;;;30.90;73.80;;;;;;5030877;28;20029;-71
2023/06/06 12:38:56;;;;;;;12.02;5.18;;;30.70;73.70;;;;;;5047739;28;20029;-71
2023/06/06 12:41:22;;;;;;;8.73;4.45;;;30.20;74.80;;;;;;5065122;28;20029;-70
2023/06/06 12:43:47;;;;;;;11.25;4.43;;;29.90;75.40;;;;;;5048936;28;20059;-71